Terminal Aerodrome Forecast
Issued by NWS Shreveport, LA

Home | Current Version | Previous Version | Text Only | Print | Product List | Glossary On
Versions: 1 2 3 4 5 6 7 8 9 10 11 12 13 14
000
FTUS44 KSHV 262339
TAFELD
TAF
KELD 262339Z 2700/2724 35013G21KT P6SM FEW029 SCT080
     FM270300 00000KT P6SM SKC
     FM271600 28005KT P6SM SKC=

USA.gov is the U.S. government's official web portal to all federal, state and local government web resources and services.